Back to top

Evanston, WY weather

Evanston-Unita County Airport/Burns Field, Evanston, WY: 11/13/2019 17:53
Visibility10 statute milesclear sky
View 7-Day Forecast
Area Summary
Sky/CloudsSky Clear
Weather [last 24 hours]None
Pressure30.16 in.Hg (1021 hPa)
Dew Point23 °F (-5 °C)
Relative Humidity54.5 %
Temperature37.9 °F (3.3 °C)red thermometer
Wind Chill30.4 °F (-0.89 °C)
Reading TimeMinimum to Maximum Temperature
6-hr ending 11/13@16:5343 °F to 50 °F (6.1 °C to 10 °C)
6-hr ending 11/13@10:5337 °F to 46 °F (2.8 °C to 7.8 °C)
6-hr ending 11/13@04:5334 °F to 39.9 °F (1.1 °C to 4.4 °C)
6-hr ending 11/12@22:5335.1 °F to 44.1 °F (1.7 °C to 6.7 °C)
24-hr ending 11/12@23:5319.9 °F to 51.1 °F (-6.7 °C to 10.6 °C)
Wind11.5 MPH (10 KT) green arrow pointing 270 degrees
Wind FromWest (280 Degrees)
Twilight Begins06:40Sunshine Yesterday
Sunrise07:09N/A
Sunset17:07
Twilight Ends17:37
METARKEVW 140053Z AUTO 28010KT 10SM CLR 03/M05 A3016 RMK AO2 SLP191 T00331050
Tags: